Flight Track Log - Related Links

Times and Time Zones

All times are in EDT time to prevent confusion due to time zone crossing. See the JZA8279 flight status page for this flight to view local times or setup timezone preferences in your user account.

Time Position Orientation Groundspeed Altitude Reporting Facility
EDT Latitude Longitude Course Direction KTS MPH feet Rate Location/Type
Fri 01:53:06 PM 54.2333 -130.4500 136° Southeast 120 138 1,900  Level Vancouver Center
Fri 01:54:06 PM 54.2167 -130.4000 120° Southeast 120 138 3,700 1,650 Climbing Vancouver Center
Fri 01:55:06 PM 54.1833 -130.3667 150° Southeast 120 138 5,200 1,400 Climbing Vancouver Center
Fri 01:56:06 PM 54.1667 -130.3333 130° Southeast 120 138 6,500 1,150 Climbing Vancouver Center
Fri 01:57:00 PM 53.9851 -129.9461 136° Southeast  Level Estimated
Fri 01:57:06 PM 54.1500 -130.2667 113° Southeast 130 150 7,500  Level Vancouver Center
Fri 01:58:00 PM 53.9371 -129.8676 136° Southeast  Level Estimated
Fri 01:58:06 PM 54.1167 -130.2333 150° Southeast 170 196 8,300  Level Vancouver Center
Fri 01:59:06 PM 54.0833 -130.1500 124° Southeast 180 207 9,500 1,200 Climbing Vancouver Center
Fri 02:00:06 PM 54.0500 -130.1167 150° Southeast 180 207 10,700 1,150 Climbing Vancouver Center
Fri 02:01:06 PM 54.0000 -130.0167 130° Southeast 190 219 11,800 1,100 Climbing Vancouver Center
Fri 02:02:06 PM 53.9833 -129.9667 120° Southeast 190 219 12,900 1,000 Climbing Vancouver Center
Fri 02:03:06 PM 53.9333 -129.9000 142° Southeast 190 219 13,800 950 Climbing Vancouver Center
Fri 02:04:06 PM 53.9000 -129.8333 130° Southeast 190 219 14,800 900 Climbing Vancouver Center
Fri 02:05:06 PM 53.8500 -129.7667 142° Southeast 200 230 15,600 800 Climbing Vancouver Center
Fri 02:06:06 PM 53.8167 -129.7167 138° Southeast 200 230 16,400 800 Climbing Vancouver Center
Fri 02:07:06 PM 53.7667 -129.6500 142° Southeast 200 230 17,200 800 Climbing Vancouver Center
Fri 02:08:06 PM 53.7333 -129.5500 119° Southeast 210 242 18,000 750 Climbing Vancouver Center
Fri 02:09:06 PM 53.7000 -129.5000 138° Southeast 210 242 18,700 650 Climbing Vancouver Center
Fri 02:10:06 PM 53.6500 -129.4333 142° Southeast 220 253 19,300 650 Climbing Vancouver Center
Fri 02:11:06 PM 53.6167 -129.3667 130° Southeast 220 253 20,000 750 Climbing Vancouver Center
Fri 02:12:06 PM 53.5667 -129.2833 135° Southeast 210 242 20,800 750 Climbing Vancouver Center
Fri 02:13:06 PM 53.5333 -129.2167 130° Southeast 210 242 21,500 700 Climbing Vancouver Center
Fri 02:14:06 PM 53.4833 -129.1500 142° Southeast 200 230 22,200 600 Climbing Vancouver Center
Fri 02:15:06 PM 53.4500 -129.1000 138° Southeast 220 253 22,700 400 Climbing Vancouver Center
Fri 02:16:06 PM 53.4000 -129.0000 130° Southeast 210 242 23,000 150 Climbing Vancouver Center
Fri 02:17:06 PM 53.3500 -128.9500 149° Southeast 240 276 23,000  Level Vancouver Center
Fri 02:18:06 PM 53.3000 -128.8500 130° Southeast 250 288 23,000  Level Vancouver Center
Fri 02:19:06 PM 53.2500 -128.7667 135° Southeast 270 311 23,000  Level Vancouver Center
Fri 02:20:06 PM 53.2000 -128.6833 135° Southeast 260 299 23,000  Level Vancouver Center
Fri 02:21:06 PM 53.1333 -128.5833 138° Southeast 270 311 23,000  Level Vancouver Center
Fri 02:22:06 PM 53.0833 -128.5000 135° Southeast 260 299 23,000  Level Vancouver Center
Fri 02:23:06 PM 53.0333 -128.4000 130° Southeast 270 311 23,000  Level Vancouver Center
Fri 02:24:06 PM 53.0000 -128.3500 138° Southeast 270 311 23,000  Level Vancouver Center
Fri 02:25:06 PM 52.9333 -128.2333 133° Southeast 290 334 23,000  Level Vancouver Center
Fri 02:26:06 PM 52.8833 -128.1667 141° Southeast 280 322 23,000  Level Vancouver Center
Fri 02:27:06 PM 52.8167 -128.0833 143° Southeast 270 311 23,000  Level Vancouver Center
Fri 02:28:06 PM 52.7500 -127.9833 138° Southeast 270 311 23,000  Level Vancouver Center
Fri 02:29:06 PM 52.7000 -127.9000 135° Southeast 280 322 23,000  Level Vancouver Center
Fri 02:30:06 PM 52.6500 -127.8167 135° Southeast 280 322 23,000  Level Vancouver Center
Fri 02:31:06 PM 52.6000 -127.7333 135° Southeast 280 322 23,000  Level Vancouver Center
Fri 02:32:06 PM 52.5333 -127.6333 138° Southeast 280 322 23,000  Level Vancouver Center
Fri 02:33:06 PM 52.4833 -127.5500 135° Southeast 280 322 23,000  Level Vancouver Center
Fri 02:34:06 PM 52.4167 -127.4667 143° Southeast 280 322 23,000  Level Vancouver Center
Fri 02:35:06 PM 52.3667 -127.3833 134° Southeast 280 322 23,000  Level Vancouver Center
Fri 02:36:06 PM 52.3167 -127.3000 134° Southeast 280 322 23,000  Level Vancouver Center
Fri 02:37:06 PM 52.2667 -127.2000 129° Southeast 280 322 23,000  Level Vancouver Center
Fri 02:38:06 PM 52.2000 -127.1167 143° Southeast 280 322 23,000  Level Vancouver Center
Fri 02:39:06 PM 52.1500 -127.0333 134° Southeast 280 322 23,000  Level Vancouver Center
Fri 02:40:06 PM 52.0833 -126.9500 142° Southeast 280 322 23,000  Level Vancouver Center
Fri 02:41:06 PM 52.0167 -126.8667 142° Southeast 280 322 23,000  Level Vancouver Center
Fri 02:42:06 PM 51.9667 -126.7833 134° Southeast 280 322 23,000  Level Vancouver Center
Fri 02:43:06 PM 51.9167 -126.6667 125° Southeast 280 322 23,000  Level Vancouver Center
Fri 02:44:06 PM 51.8667 -126.6167 148° Southeast 280 322 23,000  Level Vancouver Center
Fri 02:45:06 PM 51.8000 -126.5000 133° Southeast 280 322 23,000  Level Vancouver Center
Fri 02:46:06 PM 51.7500 -126.4333 140° Southeast 280 322 23,000  Level Vancouver Center
Fri 02:47:06 PM 51.6833 -126.3333 137° Southeast 280 322 23,000  Level Vancouver Center
Fri 02:48:06 PM 51.6167 -126.2500 142° Southeast 280 322 23,000  Level Vancouver Center
Fri 02:50:06 PM 51.5000 -126.0833 138° Southeast 280 322 23,000  Level Vancouver Center
Fri 02:51:06 PM 51.4500 -126.0000 134° Southeast 280 322 23,000  Level Vancouver Center
Fri 02:52:06 PM 51.3833 -125.9167 142° Southeast 280 322 23,000  Level Vancouver Center
Fri 02:53:06 PM 51.3167 -125.8333 142° Southeast 280 322 23,000  Level Vancouver Center
Fri 02:54:06 PM 51.2833 -125.7500 123° Southeast 280 322 23,000  Level Vancouver Center
Fri 02:55:06 PM 51.2167 -125.6667 142° Southeast 290 334 23,000  Level Vancouver Center
Fri 02:56:06 PM 51.1500 -125.5833 142° Southeast 280 322 23,000  Level Vancouver Center
Fri 02:57:06 PM 51.1000 -125.5000 134° Southeast 290 334 23,000  Level Vancouver Center
Fri 02:58:06 PM 51.0333 -125.4167 142° Southeast 290 334 23,000  Level Vancouver Center
Fri 02:59:06 PM 50.9833 -125.3333 134° Southeast 290 334 23,000  Level Vancouver Center
Fri 03:00:06 PM 50.9167 -125.2500 142° Southeast 290 334 23,000  Level Vancouver Center
Fri 03:01:06 PM 50.8500 -125.1500 137° Southeast 290 334 23,000  Level Vancouver Center
Fri 03:02:06 PM 50.8000 -125.0667 133° Southeast 290 334 23,000  Level Vancouver Center
Fri 03:03:06 PM 50.7333 -124.9833 142° Southeast 280 322 23,000  Level Vancouver Center
Fri 03:04:06 PM 50.6833 -124.9000 133° Southeast 290 334 23,000  Level Vancouver Center
Fri 03:05:06 PM 50.6167 -124.8167 142° Southeast 290 334 23,000  Level Vancouver Center
Fri 03:06:06 PM 50.5500 -124.7500 148° Southeast 290 334 23,000  Level Vancouver Center
Fri 03:07:06 PM 50.5000 -124.6667 133° Southeast 290 334 23,000  Level Vancouver Center
Fri 03:08:06 PM 50.4333 -124.5833 141° Southeast 290 334 23,000  Level Vancouver Center
Fri 03:09:06 PM 50.3667 -124.5000 141° Southeast 290 334 23,000  Level Vancouver Center
Fri 03:10:06 PM 50.3000 -124.4000 136° Southeast 300 345 23,000  Level Vancouver Center
Fri 03:11:06 PM 50.2500 -124.3167 133° Southeast 300 345 23,000 -450 Level Vancouver Center
Fri 03:12:06 PM 50.1667 -124.2500 153° Southeast 300 345 22,100 -1,050 Descending Vancouver Center
Fri 03:13:06 PM 50.1167 -124.1333 124° Southeast 320 368 20,900 -1,200 Descending Vancouver Center
Fri 03:14:06 PM 50.0500 -124.0667 147° Southeast 310 357 19,700 -1,200 Descending Vancouver Center
Fri 03:15:06 PM 49.9833 -123.9833 141° Southeast 310 357 18,500 -1,150 Descending Vancouver Center
Fri 03:16:06 PM 49.9167 -123.9000 141° Southeast 300 345 17,400 -1,100 Descending Vancouver Center
Fri 03:17:06 PM 49.8500 -123.8000 136° Southeast 290 334 16,300 -1,067 Descending Vancouver Center
Fri 03:19:06 PM 49.7333 -123.6667 144° Southeast 270 311 14,200 -1,100 Descending Vancouver Center
Fri 03:20:06 PM 49.6667 -123.6000 147° Southeast 280 322 13,000 -1,350 Descending Vancouver Center
Fri 03:21:06 PM 49.6000 -123.5333 147° Southeast 290 334 11,500 -1,550 Descending Vancouver Center
Fri 03:22:06 PM 49.5333 -123.4667 147° Southeast 290 334 9,900 -1,500 Descending Vancouver Center
Fri 03:23:06 PM 49.4667 -123.4167 154° Southeast 270 311 8,500 -1,450 Descending Vancouver Center
Fri 03:24:06 PM 49.4167 -123.3333 133° Southeast 250 288 7,000 -1,500 Descending Vancouver Center
Fri 03:25:06 PM 49.3500 -123.3333 180° South 240 276 5,500 -1,000 Descending Vancouver Center
Fri 03:26:06 PM 49.2833 -123.3333 180° South 230 265 5,000 -1,100 Descending Vancouver Center
Fri 03:27:06 PM 49.2667 -123.4333 256° West 210 242 3,300 -1,300 Descending Vancouver Center
Fri 03:28:06 PM 49.2333 -123.4333 180° South 180 207 2,400 -650 Descending Vancouver Center
Fri 03:29:06 PM 49.2000 -123.3667 127° Southeast 190 219 2,000 -600 Descending Vancouver Center
Fri 03:30:06 PM 49.2000 -123.2833 90° East 170 196 1,200 -750 Descending Vancouver Center
Fri 03:31:06 PM 49.1833 -123.2333 117° Southeast 120 138 500 -700 Descending Vancouver Center

Login

Don't have an account? Register now (free) for customized features, flight alerts, and more!